Time;durP1;ratioP1;P1;durP2;ratioP2;P2;SDS_P1;SDS_P2;PMS_P1;PMS_P2;Temp;Humidity;BMP_temperature;BMP_pressure;BME280_temperature;BME280_humidity;BME280_pressure;Samples;Min_cycle;Max_cycle;Signal;HPM_P1;HPM_P2
2022/04/02 00:00:41;;;;;;;14.18;8.82;;;2.50;99.90;;;;;;5093235;28;20039;-62
2022/04/02 00:03:06;;;;;;;15.07;9.52;;;2.50;99.90;;;;;;5092312;28;20047;-64
2022/04/02 00:05:32;;;;;;;13.73;9.27;;;2.50;99.90;;;;;;5093812;28;20024;-62
2022/04/02 00:07:58;;;;;;;15.45;9.57;;;2.50;99.90;;;;;;5092304;28;20453;-63
2022/04/02 00:10:23;;;;;;;17.65;10.32;;;2.50;99.90;;;;;;5093643;28;20031;-63
2022/04/02 00:12:50;;;;;;;16.83;10.68;;;2.50;99.90;;;;;;5093809;28;20024;-62
2022/04/02 00:15:15;;;;;;;14.18;10.05;;;2.40;99.90;;;;;;5093484;28;20036;-62
2022/04/02 00:17:41;;;;;;;15.45;10.48;;;2.40;99.90;;;;;;5093618;28;20048;-63
2022/04/02 00:20:07;;;;;;;15.82;10.18;;;2.40;99.90;;;;;;5093411;28;20040;-62
2022/04/02 00:22:33;;;;;;;16.17;10.23;;;2.40;99.90;;;;;;5109463;28;20020;-62
2022/04/02 00:24:58;;;;;;;15.40;10.73;;;2.40;99.90;;;;;;5092396;28;20517;-63
2022/04/02 00:27:25;;;;;;;14.73;10.38;;;2.50;99.90;;;;;;5108751;28;20032;-62
2022/04/02 00:29:50;;;;;;;18.10;10.13;;;2.40;99.90;;;;;;5093032;28;20020;-62
2022/04/02 00:32:16;;;;;;;14.52;10.48;;;2.40;99.90;;;;;;5094815;28;20089;-62
2022/04/02 00:34:42;;;;;;;15.30;10.55;;;2.40;99.90;;;;;;5096965;28;20099;-62
2022/04/02 00:37:08;;;;;;;17.35;10.93;;;2.40;99.90;;;;;;5096878;28;20048;-62
2022/04/02 00:39:33;;;;;;;16.42;10.52;;;2.50;99.90;;;;;;5096760;28;20028;-62
2022/04/02 00:41:59;;;;;;;16.70;10.52;;;2.60;99.90;;;;;;5096732;28;20521;-62
2022/04/02 00:44:26;;;;;;;16.67;11.05;;;2.50;99.90;;;;;;5097050;28;20376;-62
2022/04/02 00:46:52;;;;;;;20.13;11.07;;;2.40;99.90;;;;;;5096760;28;20020;-62
2022/04/02 00:49:20;;;;;;;16.83;10.68;;;2.50;99.90;;;;;;5095786;28;20040;-62
2022/04/02 00:51:46;;;;;;;18.70;11.27;;;2.40;99.90;;;;;;5095797;28;20365;-62
2022/04/02 00:54:19;;;;;;;17.65;10.80;;;2.60;99.90;;;;;;5096307;28;20483;-62
2022/04/02 00:56:45;;;;;;;16.55;10.30;;;2.40;99.90;;;;;;5095249;28;20409;-62
2022/04/02 00:59:12;;;;;;;17.10;10.70;;;2.50;99.90;;;;;;5096268;28;20533;-62
2022/04/02 01:01:38;;;;;;;17.85;11.95;;;2.50;99.90;;;;;;5096495;28;20068;-62
2022/04/02 01:04:04;;;;;;;22.80;11.57;;;2.60;99.90;;;;;;5095291;28;20128;-62
2022/04/02 01:06:32;;;;;;;20.42;11.63;;;2.60;99.90;;;;;;5096310;28;20028;-62
2022/04/02 01:08:58;;;;;;;21.20;11.73;;;2.50;99.90;;;;;;5095931;28;20122;-62
2022/04/02 01:11:34;;;;;;;20.08;12.45;;;2.60;99.90;;;;;;5095886;28;20495;-63
2022/04/02 01:13:59;;;;;;;20.15;12.70;;;2.50;99.90;;;;;;5096578;28;20024;-62
2022/04/02 01:16:26;;;;;;;20.48;12.48;;;2.40;99.90;;;;;;5096105;28;20040;-62
2022/04/02 01:18:52;;;;;;;20.95;12.18;;;2.50;99.90;;;;;;5096298;28;20453;-62
2022/04/02 01:21:18;;;;;;;18.65;12.40;;;2.50;99.90;;;;;;5095985;28;20036;-62
2022/04/02 01:23:44;;;;;;;20.40;12.63;;;2.40;99.90;;;;;;5096029;28;20050;-62
2022/04/02 01:26:09;;;;;;;25.52;12.52;;;2.40;99.90;;;;;;5095983;28;20028;-62
2022/04/02 01:28:35;;;;;;;22.60;12.98;;;2.50;99.90;;;;;;5094719;28;20356;-62
2022/04/02 01:31:05;;;;;;;26.23;14.02;;;2.40;99.90;;;;;;5111610;28;20035;-62
2022/04/02 01:33:31;;;;;;;24.48;13.48;;;2.40;99.90;;;;;;5095844;28;20468;-63
2022/04/02 01:36:00;;;;;;;21.92;13.38;;;2.40;99.90;;;;;;5095495;28;20042;-62
2022/04/02 01:38:27;;;;;;;26.38;14.18;;;2.30;99.90;;;;;;5096006;28;20365;-62
2022/04/02 01:40:53;;;;;;;22.30;14.15;;;2.30;99.90;;;;;;5095632;28;20074;-62
2022/04/02 01:43:19;;;;;;;20.45;13.35;;;2.40;99.90;;;;;;5095494;28;20052;-62
2022/04/02 01:45:45;;;;;;;21.08;12.50;;;2.40;99.90;;;;;;5095600;28;20043;-62
2022/04/02 01:48:10;;;;;;;24.45;13.25;;;2.40;99.90;;;;;;5095564;28;20472;-62
2022/04/02 01:50:36;;;;;;;21.67;13.02;;;2.40;99.90;;;;;;5095211;28;20035;-62
2022/04/02 01:53:02;;;;;;;23.13;13.68;;;2.40;99.90;;;;;;5094262;28;20031;-62
2022/04/02 01:55:28;;;;;;;19.73;12.30;;;2.40;99.90;;;;;;5095407;28;20032;-62
2022/04/02 01:57:53;;;;;;;24.67;13.07;;;2.40;99.90;;;;;;5095348;28;20070;-62
2022/04/02 02:00:21;;;;;;;19.33;12.43;;;2.40;99.90;;;;;;5095214;28;20044;-62
2022/04/02 02:02:47;;;;;;;20.80;13.35;;;2.40;99.90;;;;;;5110970;28;20031;-62
2022/04/02 02:05:13;;;;;;;21.38;12.60;;;2.40;99.90;;;;;;5096067;28;20020;-62
2022/04/02 02:07:39;;;;;;;22.00;12.13;;;2.40;99.90;;;;;;5094179;28;20051;-62
2022/04/02 02:10:05;;;;;;;20.45;12.13;;;2.40;99.90;;;;;;5094865;28;20467;-62
2022/04/02 02:12:30;;;;;;;18.20;11.73;;;2.40;99.90;;;;;;5095428;28;20115;-62
2022/04/02 02:14:56;;;;;;;24.15;12.13;;;2.40;99.90;;;;;;5095173;28;20056;-62
2022/04/02 02:17:22;;;;;;;21.85;13.10;;;2.40;99.90;;;;;;5093771;28;20048;-62
2022/04/02 02:19:47;;;;;;;25.48;12.00;;;2.50;99.90;;;;;;5093613;28;20055;-62
2022/04/02 02:22:13;;;;;;;18.35;11.00;;;2.60;99.90;;;;;;5095190;28;20104;-62
2022/04/02 02:24:39;;;;;;;18.63;11.73;;;2.40;99.90;;;;;;5094905;28;20110;-62
2022/04/02 02:27:04;;;;;;;21.55;12.23;;;2.40;99.90;;;;;;5093225;28;20024;-62
2022/04/02 02:29:31;;;;;;;19.70;11.82;;;2.50;99.90;;;;;;5094765;28;20038;-62
2022/04/02 02:31:56;;;;;;;18.63;11.65;;;2.40;99.90;;;;;;5093494;28;20024;-62
2022/04/02 02:37:06;;;;;;;20.20;11.75;;;2.50;99.90;;;;;;5094801;28;20375;-62
2022/04/02 02:39:32;;;;;;;23.10;10.85;;;2.40;99.90;;;;;;5094700;28;20099;-62
2022/04/02 02:41:57;;;;;;;19.20;12.57;;;2.60;99.90;;;;;;5094178;28;20028;-62
2022/04/02 02:44:23;;;;;;;18.38;11.27;;;2.40;99.90;;;;;;5092898;28;20024;-62
2022/04/02 02:46:48;;;;;;;20.15;11.43;;;2.40;99.90;;;;;;5094446;28;20024;-62
2022/04/02 02:49:14;;;;;;;18.58;10.40;;;2.40;99.90;;;;;;5094151;28;20028;-62
2022/04/02 02:54:25;;;;;;;17.38;11.05;;;2.40;99.90;;;;;;5093976;28;20038;-63
2022/04/02 02:56:51;;;;;;;18.05;11.27;;;2.40;99.90;;;;;;5094512;28;20024;-62
2022/04/02 02:59:16;;;;;;;17.58;10.77;;;2.50;99.90;;;;;;5094390;28;20364;-62
2022/04/02 03:01:42;;;;;;;19.58;10.40;;;2.40;99.90;;;;;;5094110;28;20028;-62
2022/04/02 03:04:07;;;;;;;17.88;10.80;;;2.40;99.90;;;;;;5092891;28;20073;-62
2022/04/02 03:06:33;;;;;;;18.90;10.30;;;2.40;99.90;;;;;;5092894;28;20073;-62
2022/04/02 03:08:59;;;;;;;14.10;9.55;;;2.40;99.90;;;;;;5094125;28;20028;-62
2022/04/02 03:11:24;;;;;;;16.88;10.73;;;2.40;99.90;;;;;;5092856;28;20032;-62
2022/04/02 03:13:50;;;;;;;18.05;10.27;;;2.40;99.90;;;;;;5092819;28;20024;-62
2022/04/02 03:16:16;;;;;;;14.30;10.43;;;2.40;99.90;;;;;;5093963;28;20131;-62
2022/04/02 03:18:41;;;;;;;18.42;11.25;;;2.40;99.90;;;;;;5109722;28;20031;-63
2022/04/02 03:21:07;;;;;;;16.75;10.07;;;2.40;99.90;;;;;;5092262;28;20494;-62
2022/04/02 03:23:33;;;;;;;14.43;9.80;;;2.40;99.90;;;;;;5110122;28;20053;-62
2022/04/02 03:25:59;;;;;;;19.33;9.75;;;2.40;99.90;;;;;;5093910;28;20099;-62
2022/04/02 03:28:24;;;;;;;22.70;11.05;;;2.40;99.90;;;;;;5093966;28;20024;-62
2022/04/02 03:30:50;;;;;;;19.05;10.65;;;2.40;99.90;;;;;;5093872;28;20064;-62
2022/04/02 03:33:16;;;;;;;15.30;9.55;;;2.40;99.90;;;;;;5093853;28;20024;-62
2022/04/02 03:35:44;;;;;;;15.88;10.20;;;2.40;99.90;;;;;;5092513;28;20452;-62
2022/04/02 03:38:10;;;;;;;16.85;10.82;;;2.50;99.90;;;;;;5094331;28;20016;-62
2022/04/02 03:40:35;;;;;;;15.68;10.10;;;2.40;99.90;;;;;;5093679;28;20063;-64
2022/04/02 03:43:01;;;;;;;20.48;10.40;;;2.40;99.90;;;;;;5094370;28;20403;-63
2022/04/02 03:45:27;;;;;;;18.75;9.73;;;2.40;99.90;;;;;;5094052;28;20028;-62
2022/04/02 03:47:52;;;;;;;21.10;10.23;;;2.40;99.90;;;;;;5093750;28;20474;-62
2022/04/02 03:50:19;;;;;;;17.13;9.73;;;2.40;99.90;;;;;;5093726;28;20032;-62
2022/04/02 03:52:45;;;;;;;21.42;10.38;;;2.40;99.90;;;;;;5093683;28;20028;-62
2022/04/02 03:55:10;;;;;;;20.27;10.82;;;2.40;99.90;;;;;;5093653;28;20016;-62
2022/04/02 03:57:36;;;;;;;16.45;9.35;;;2.40;99.90;;;;;;5093662;28;20074;-62
2022/04/02 04:00:08;;;;;;;16.77;9.80;;;2.40;99.90;;;;;;5092271;28;20491;-62
2022/04/02 04:02:34;;;;;;;23.08;10.48;;;2.40;99.90;;;;;;5092016;28;20031;-62
2022/04/02 04:05:00;;;;;;;16.08;9.77;;;2.40;99.90;;;;;;5093624;28;20073;-62
2022/04/02 04:07:26;;;;;;;18.98;10.50;;;2.40;99.90;;;;;;5095803;28;20024;-62
2022/04/02 04:09:51;;;;;;;18.83;10.73;;;2.40;99.90;;;;;;5096251;28;20132;-62
2022/04/02 04:12:17;;;;;;;17.58;10.02;;;2.40;99.90;;;;;;5097683;28;20103;-62
2022/04/02 04:14:44;;;;;;;16.48;9.60;;;2.40;99.90;;;;;;5096646;28;20046;-62
2022/04/02 04:17:11;;;;;;;17.05;9.35;;;2.40;99.90;;;;;;5097394;28;20076;-62
2022/04/02 04:19:37;;;;;;;16.92;9.85;;;2.40;99.90;;;;;;5096467;28;20024;-62
2022/04/02 04:22:03;;;;;;;23.83;9.75;;;2.30;99.90;;;;;;5097375;28;20038;-62
2022/04/02 04:24:30;;;;;;;16.77;10.00;;;2.40;99.90;;;;;;5095880;28;20042;-62
2022/04/02 04:26:56;;;;;;;13.18;8.60;;;2.30;99.90;;;;;;5097260;28;20054;-62
2022/04/02 04:29:21;;;;;;;18.13;9.02;;;2.30;99.90;;;;;;5095856;28;20024;-62
2022/04/02 04:31:47;;;;;;;24.88;8.93;;;2.30;99.90;;;;;;5095804;28;20050;-62
2022/04/02 04:34:12;;;;;;;19.63;9.32;;;2.50;99.90;;;;;;5095785;28;20067;-62
2022/04/02 04:36:38;;;;;;;15.90;9.05;;;2.30;99.90;;;;;;5096658;28;20024;-62
2022/04/02 04:39:05;;;;;;;13.88;8.63;;;2.30;99.90;;;;;;5095683;28;20054;-62
2022/04/02 04:41:31;;;;;;;17.67;9.48;;;2.30;99.90;;;;;;5096884;28;20036;-62
2022/04/02 04:43:57;;;;;;;14.30;9.25;;;2.30;99.90;;;;;;5096819;28;20020;-62
2022/04/02 04:46:23;;;;;;;14.15;8.73;;;2.30;99.90;;;;;;5096778;28;20027;-62
2022/04/02 04:48:49;;;;;;;17.88;9.25;;;2.30;99.90;;;;;;5096737;28;20048;-62
2022/04/02 04:51:15;;;;;;;20.40;9.40;;;2.30;99.90;;;;;;5096818;28;20166;-70
2022/04/02 04:53:41;;;;;;;16.52;8.68;;;2.30;99.90;;;;;;5097093;28;20059;-63
2022/04/02 04:56:07;;;;;;;15.52;9.05;;;2.30;99.90;;;;;;5095429;28;20020;-63
2022/04/02 04:58:34;;;;;;;18.10;8.63;;;2.30;99.90;;;;;;5096609;28;20024;-62
2022/04/02 05:01:00;;;;;;;14.32;9.25;;;2.40;99.90;;;;;;5096269;28;20032;-63
2022/04/02 05:03:26;;;;;;;22.10;9.10;;;2.30;99.90;;;;;;5095169;28;20030;-62
2022/04/02 05:05:53;;;;;;;18.92;9.32;;;2.50;99.90;;;;;;5096416;28;20070;-63
2022/04/02 05:08:20;;;;;;;15.10;8.60;;;2.30;99.90;;;;;;5095034;28;20048;-63
2022/04/02 05:10:46;;;;;;;15.55;8.18;;;2.40;99.90;;;;;;5096288;28;20066;-63
2022/04/02 05:13:13;;;;;;;14.43;8.32;;;2.40;99.90;;;;;;5095427;28;20478;-63
2022/04/02 05:15:41;;;;;;;14.38;8.93;;;2.40;99.90;;;;;;5095946;28;20028;-62
2022/04/02 05:18:08;;;;;;;15.70;8.60;;;2.40;99.90;;;;;;5094168;28;20055;-62
2022/04/02 05:20:34;;;;;;;11.38;8.20;;;2.80;99.90;;;;;;5096020;28;20076;-62
2022/04/02 05:23:00;;;;;;;15.43;9.15;;;2.50;99.90;;;;;;5096074;28;20028;-63
2022/04/02 05:25:26;;;;;;;15.95;8.52;;;2.50;99.90;;;;;;5095782;28;20470;-63
2022/04/02 05:27:54;;;;;;;20.23;8.77;;;2.50;99.90;;;;;;5096243;28;20028;-63
2022/04/02 05:30:20;;;;;;;16.13;8.97;;;2.50;99.90;;;;;;5096253;28;20031;-63
2022/04/02 05:32:46;;;;;;;13.63;8.93;;;2.70;99.90;;;;;;5095787;28;20028;-64
2022/04/02 05:35:12;;;;;;;12.45;8.75;;;2.60;99.90;;;;;;5095518;28;20035;-65
2022/04/02 05:37:45;;;;;;;12.15;8.25;;;2.70;99.90;;;;;;5095917;28;20032;-65
2022/04/02 05:40:11;;;;;;;15.27;8.40;;;2.70;99.90;;;;;;5094393;28;20040;-65
2022/04/02 05:42:37;;;;;;;14.32;9.05;;;2.70;99.90;;;;;;5095773;28;20027;-63
2022/04/02 05:45:03;;;;;;;16.10;9.50;;;2.80;99.90;;;;;;5094385;28;20028;-61
2022/04/02 05:47:49;;;;;;;12.55;7.90;;;2.80;99.90;;;;;;5094607;28;20024;-63
2022/04/02 05:50:17;;;;;;;12.32;8.18;;;2.80;99.90;;;;;;5095896;28;20055;-62
2022/04/02 05:52:43;;;;;;;15.52;8.43;;;2.80;99.90;;;;;;5095595;28;20032;-63
2022/04/02 05:55:10;;;;;;;20.80;9.27;;;2.90;99.90;;;;;;5095505;28;20073;-63
2022/04/02 05:57:37;;;;;;;14.13;8.60;;;2.90;99.90;;;;;;5094189;28;20028;-63
2022/04/02 06:00:08;;;;;;;16.85;8.00;;;2.90;99.90;;;;;;5094953;28;20024;-62
2022/04/02 06:02:34;;;;;;;15.55;8.27;;;2.90;99.90;;;;;;5095733;28;20028;-64
2022/04/02 06:05:00;;;;;;;16.50;9.38;;;2.90;99.90;;;;;;5095285;28;20024;-62
2022/04/02 06:07:26;;;;;;;17.02;8.25;;;2.90;99.90;;;;;;5095216;28;20129;-63
2022/04/02 06:09:52;;;;;;;12.95;8.30;;;2.90;99.90;;;;;;5095013;28;20479;-62
2022/04/02 06:12:18;;;;;;;14.57;8.38;;;3.00;99.90;;;;;;5095114;28;20376;-62
2022/04/02 06:14:43;;;;;;;13.43;9.50;;;3.30;99.90;;;;;;5095077;28;20421;-62
2022/04/02 06:17:09;;;;;;;15.05;8.32;;;3.00;99.90;;;;;;5095144;28;20114;-63
2022/04/02 06:19:34;;;;;;;18.05;8.82;;;3.00;99.90;;;;;;5095156;28;20483;-63
2022/04/02 06:22:01;;;;;;;20.73;8.43;;;2.90;99.90;;;;;;5093585;28;20081;-62
2022/04/02 06:24:26;;;;;;;14.75;7.90;;;2.90;99.90;;;;;;5094019;28;20145;-62
2022/04/02 06:26:52;;;;;;;13.27;7.20;;;2.90;99.90;;;;;;5094568;28;20488;-62
2022/04/02 06:29:19;;;;;;;14.52;8.13;;;3.00;99.90;;;;;;5092456;28;20527;-63
2022/04/02 06:31:45;;;;;;;18.42;8.98;;;3.00;99.90;;;;;;5094749;28;20032;-62
2022/04/02 06:34:11;;;;;;;13.25;8.40;;;2.90;99.90;;;;;;5094988;28;20081;-63
2022/04/02 06:36:37;;;;;;;17.48;8.02;;;3.00;99.90;;;;;;5094652;28;20345;-63
2022/04/02 06:39:03;;;;;;;14.07;8.40;;;3.10;99.90;;;;;;5093305;28;20059;-63
2022/04/02 06:41:29;;;;;;;17.00;8.32;;;3.00;99.90;;;;;;5094479;28;20119;-63
2022/04/02 06:43:54;;;;;;;15.32;8.60;;;3.00;99.90;;;;;;5094388;28;20031;-62
2022/04/02 06:46:20;;;;;;;14.60;7.97;;;3.00;99.90;;;;;;5094215;28;20024;-62
2022/04/02 06:48:45;;;;;;;14.70;8.52;;;3.10;99.90;;;;;;5094073;28;20464;-62
2022/04/02 06:51:11;;;;;;;13.50;8.50;;;3.10;99.90;;;;;;5094690;28;20039;-62
2022/04/02 06:53:37;;;;;;;15.02;8.27;;;3.10;99.90;;;;;;5094404;28;20081;-61
2022/04/02 06:56:03;;;;;;;12.27;7.95;;;3.20;99.90;;;;;;5093045;28;20024;-62
2022/04/02 06:58:32;;;;;;;15.77;8.50;;;3.20;99.90;;;;;;5094313;28;20085;-62
2022/04/02 07:00:57;;;;;;;;;;;3.20;99.90;;;;;;5094788;28;20039;-61
2022/04/02 07:03:23;;;;;;;17.05;8.90;;;3.30;99.90;;;;;;5094253;28;19903;-64
2022/04/02 07:05:49;;;;;;;13.88;9.38;;;3.20;99.90;;;;;;5092881;28;20024;-62
2022/04/02 07:08:15;;;;;;;10.90;8.07;;;3.30;99.90;;;;;;5093836;28;20055;-62
2022/04/02 07:10:41;;;;;;;18.08;8.65;;;3.30;99.90;;;;;;5094085;28;20111;-61
2022/04/02 07:13:06;;;;;;;20.83;9.55;;;3.30;99.90;;;;;;5094082;28;20042;-62
2022/04/02 07:15:32;;;;;;;16.80;9.48;;;3.30;99.90;;;;;;5094052;28;20090;-61
2022/04/02 07:18:05;;;;;;;14.77;9.02;;;3.30;99.90;;;;;;5092162;28;20501;-61
2022/04/02 07:20:34;;;;;;;17.05;8.02;;;3.30;99.90;;;;;;5093934;28;20039;-61
2022/04/02 07:23:01;;;;;;;;;;;3.30;99.90;;;;;;5094015;28;20469;-62
2022/04/02 07:25:28;;;;;;;15.10;8.35;;;3.30;99.90;;;;;;5093393;28;19957;-61
2022/04/02 07:27:56;;;;;;;15.38;9.38;;;3.40;99.90;;;;;;5093904;28;20043;-62
2022/04/02 07:30:24;;;;;;;15.77;9.20;;;3.50;99.90;;;;;;5092587;28;20028;-65
2022/04/02 07:32:50;;;;;;;14.20;8.45;;;3.50;99.90;;;;;;5093789;28;20055;-61
2022/04/02 07:35:16;;;;;;;19.20;8.82;;;3.70;99.90;;;;;;5093816;28;20028;-61
2022/04/02 07:37:58;;;;;;;13.77;8.80;;;3.70;99.90;;;;;;5094068;28;20028;-62
2022/04/02 07:40:28;;;;;;;19.25;8.88;;;3.80;99.90;;;;;;5092906;28;20468;-61
2022/04/02 07:43:15;;;;;;;19.73;9.88;;;3.80;99.90;;;;;;5097743;28;20056;-61
2022/04/02 07:45:45;;;;;;;13.90;8.60;;;3.80;99.90;;;;;;5096375;28;20028;-61
2022/04/02 07:48:11;;;;;;;16.95;8.85;;;3.70;99.90;;;;;;5097906;28;20020;-62
2022/04/02 07:50:44;;;;;;;15.55;8.93;;;3.70;99.90;;;;;;5097854;28;20057;-61
2022/04/02 07:53:22;;;;;;;14.45;8.85;;;3.70;99.90;;;;;;5098073;28;20047;-61
2022/04/02 07:55:56;;;;;;;15.65;8.43;;;3.80;99.90;;;;;;5098579;28;20052;-62
2022/04/02 08:02:03;;;;;;;14.13;8.52;;;4.20;99.90;;;;;;5097413;28;20088;-63
2022/04/02 08:04:30;;;;;;;19.20;9.18;;;4.00;99.90;;;;;;5097671;28;20371;-63
2022/04/02 08:06:57;;;;;;;14.55;8.57;;;4.00;99.90;;;;;;5096446;28;20065;-62
2022/04/02 08:09:25;;;;;;;14.18;8.68;;;4.00;99.90;;;;;;5096249;28;20028;-63
2022/04/02 08:11:52;;;;;;;15.20;8.35;;;4.10;99.90;;;;;;5097763;28;20024;-63
2022/04/02 08:14:18;;;;;;;19.15;8.40;;;4.10;99.90;;;;;;5097146;28;20032;-63
2022/04/02 08:16:45;;;;;;;19.05;7.88;;;4.10;99.90;;;;;;5096052;28;20051;-63
2022/04/02 08:19:11;;;;;;;15.30;8.40;;;3.90;99.90;;;;;;5095981;28;20028;-63
2022/04/02 08:21:39;;;;;;;12.38;7.75;;;4.10;99.90;;;;;;5095596;28;20047;-63
2022/04/02 08:24:05;;;;;;;14.68;8.75;;;4.10;99.90;;;;;;5097220;28;20480;-63
2022/04/02 08:26:43;;;;;;;13.90;8.70;;;4.20;99.90;;;;;;5097419;28;20528;-63
2022/04/02 08:29:27;;;;;;;17.35;8.32;;;4.20;99.90;;;;;;5096193;28;20024;-63
2022/04/02 08:32:01;;;;;;;14.98;9.15;;;4.30;99.90;;;;;;5097151;28;20055;-63
2022/04/02 08:34:51;;;;;;;16.08;6.90;;;4.40;99.90;;;;;;5097224;28;20016;-63
2022/04/02 08:37:25;;;;;;;13.80;8.27;;;4.70;99.90;;;;;;5097010;28;20028;-67
2022/04/02 08:40:01;;;;;;;23.63;10.95;;;4.70;99.90;;;;;;5095712;28;20028;-62
2022/04/02 08:42:35;;;;;;;12.75;7.45;;;4.60;99.90;;;;;;5097054;28;20107;-62
2022/04/02 08:45:10;;;;;;;16.48;7.75;;;4.40;99.90;;;;;;5096848;28;20028;-62
2022/04/02 08:47:39;;;;;;;14.07;8.50;;;4.40;99.90;;;;;;5096898;28;20101;-62
2022/04/02 08:50:12;;;;;;;14.13;8.10;;;4.60;99.90;;;;;;5096753;28;20024;-62
2022/04/02 08:52:57;;;;;;;15.82;8.02;;;4.70;99.90;;;;;;5095212;28;20415;-62
2022/04/02 08:55:44;;;;;;;15.38;8.20;;;4.50;99.90;;;;;;5096576;28;20028;-62
2022/04/02 08:58:42;;;;;;;18.88;7.55;;;4.40;99.90;;;;;;5096345;28;20055;-62
2022/04/02 09:01:10;;;;;;;12.15;7.53;;;4.50;99.90;;;;;;5095075;28;20031;-62
2022/04/02 09:03:55;;;;;;;14.70;7.82;;;4.60;99.90;;;;;;5096212;28;20106;-62
2022/04/02 09:10:13;;;;;;;15.70;7.88;;;4.10;99.90;;;;;;5096571;28;20375;-62
2022/04/02 09:12:55;;;;;;;12.00;6.80;;;4.00;99.90;;;;;;5094941;28;20028;-63
2022/04/02 09:15:35;;;;;;;15.77;7.78;;;4.10;99.90;;;;;;5096057;28;20533;-61
2022/04/02 09:18:13;;;;;;;14.52;7.80;;;4.30;99.90;;;;;;5095878;28;20104;-62
2022/04/02 09:20:38;;;;;;;15.35;8.38;;;4.40;99.90;;;;;;5094846;28;20361;-61
2022/04/02 09:23:24;;;;;;;17.70;7.65;;;4.60;99.90;;;;;;5096524;28;20035;-62
2022/04/02 09:25:56;;;;;;;13.25;7.30;;;4.70;99.90;;;;;;5096410;28;20078;-61
2022/04/02 09:28:55;;;;;;;15.73;7.50;;;4.90;99.90;;;;;;5095188;28;20414;-62
2022/04/02 09:31:54;;;;;;;11.70;7.28;;;5.10;99.90;;;;;;5096838;28;20055;-63
2022/04/02 09:34:52;;;;;;;15.75;8.13;;;5.20;99.90;;;;;;5096533;28;20031;-65
2022/04/02 09:37:33;;;;;;;13.18;7.47;;;5.10;99.90;;;;;;5094288;28;20036;-62
2022/04/02 09:40:10;;;;;;;14.60;8.02;;;4.70;99.90;;;;;;5094901;28;20490;-63
2022/04/02 09:42:41;;;;;;;14.38;7.93;;;4.80;99.90;;;;;;5096034;28;20028;-64
2022/04/02 09:45:20;;;;;;;14.18;7.70;;;4.70;99.90;;;;;;5095866;28;20107;-63
2022/04/02 09:48:24;;;;;;;13.48;7.72;;;4.50;99.90;;;;;;5095884;28;20034;-62
2022/04/02 09:50:55;;;;;;;16.13;7.53;;;4.70;99.90;;;;;;5094293;28;20032;-63
2022/04/02 09:53:32;;;;;;;14.50;8.50;;;4.70;99.90;;;;;;5095758;28;20016;-63
2022/04/02 09:56:03;;;;;;;15.88;9.15;;;4.70;99.90;;;;;;5094298;28;20379;-63
2022/04/02 09:59:03;;;;;;;17.63;7.75;;;4.80;99.90;;;;;;5095654;28;20031;-63
2022/04/02 10:01:35;;;;;;;21.33;8.50;;;4.60;99.90;;;;;;5095323;28;20035;-63
2022/04/02 10:04:26;;;;;;;16.92;8.40;;;4.50;99.90;;;;;;5093772;28;20028;-64
2022/04/02 10:06:55;;;;;;;18.35;7.93;;;4.40;99.90;;;;;;5094062;28;20464;-63
2022/04/02 10:09:25;;;;;;;17.20;8.10;;;4.40;99.90;;;;;;5094931;28;20069;-63
2022/04/02 10:11:53;;;;;;;14.63;7.95;;;4.30;99.90;;;;;;5093973;28;20554;-63
2022/04/02 10:14:22;;;;;;;21.73;9.95;;;4.40;99.90;;;;;;5093447;28;20035;-63
2022/04/02 10:16:57;;;;;;;13.23;7.57;;;4.30;99.90;;;;;;5094982;28;20051;-63
2022/04/02 10:19:31;;;;;;;12.88;8.07;;;4.40;99.90;;;;;;5095022;28;20027;-63
2022/04/02 10:22:05;;;;;;;13.98;8.52;;;4.40;99.90;;;;;;5093616;28;20063;-63
2022/04/02 10:24:37;;;;;;;17.50;7.75;;;4.30;99.90;;;;;;5094975;28;20028;-63
2022/04/02 10:27:04;;;;;;;11.48;8.13;;;4.50;99.90;;;;;;5094953;28;20048;-63
2022/04/02 10:29:53;;;;;;;18.73;8.05;;;4.50;99.90;;;;;;5094820;28;20028;-63
2022/04/02 10:32:34;;;;;;;16.88;7.78;;;4.60;99.90;;;;;;5093633;28;20020;-63
2022/04/02 10:35:11;;;;;;;13.65;8.40;;;4.60;99.90;;;;;;5094769;28;20108;-64
2022/04/02 10:37:40;;;;;;;16.83;7.85;;;4.70;99.90;;;;;;5094781;28;20020;-63
2022/04/02 10:40:11;;;;;;;17.63;8.23;;;4.50;99.90;;;;;;5093555;28;20114;-63
2022/04/02 10:42:41;;;;;;;16.85;8.30;;;4.40;99.90;;;;;;5094918;28;20448;-63
2022/04/02 10:45:13;;;;;;;15.68;8.63;;;4.40;99.90;;;;;;5094569;28;20518;-63
2022/04/02 10:47:48;;;;;;;11.95;8.00;;;4.20;99.90;;;;;;5093492;28;20043;-63
2022/04/02 10:50:18;;;;;;;16.80;7.25;;;4.00;99.90;;;;;;5094543;28;20016;-63
2022/04/02 10:52:47;;;;;;;16.95;8.88;;;4.00;99.90;;;;;;5094694;28;20483;-65
2022/04/02 10:55:17;;;;;;;17.00;7.75;;;4.10;99.90;;;;;;5093109;28;20028;-63
2022/04/02 10:57:43;;;;;;;17.73;6.97;;;4.20;99.90;;;;;;5093510;28;20070;-63
2022/04/02 11:00:10;;;;;;;13.60;6.82;;;4.30;99.90;;;;;;5094241;28;20379;-63
2022/04/02 11:02:40;;;;;;;19.85;6.57;;;4.20;99.90;;;;;;5094104;28;20476;-63
2022/04/02 11:05:08;;;;;;;13.57;7.15;;;4.20;99.90;;;;;;5092895;28;20020;-63
2022/04/02 11:07:49;;;;;;;18.75;7.45;;;4.10;99.90;;;;;;5094442;28;20460;-63
2022/04/02 11:10:20;;;;;;;15.23;8.05;;;3.90;99.90;;;;;;5092907;28;20024;-62
2022/04/02 11:12:48;;;;;;;19.63;6.63;;;3.70;99.90;;;;;;5094108;28;20059;-63
2022/04/02 11:15:24;;;;;;;12.43;7.15;;;3.70;99.90;;;;;;5092231;28;20464;-63
2022/04/02 11:17:52;;;;;;;13.30;6.55;;;3.60;99.90;;;;;;5094468;28;20044;-63
2022/04/02 11:20:18;;;;;;;19.48;7.32;;;3.60;99.90;;;;;;5092689;28;20127;-63
2022/04/02 11:22:49;;;;;;;12.13;6.93;;;3.60;99.90;;;;;;5094055;28;20103;-63
2022/04/02 11:25:19;;;;;;;10.30;6.15;;;3.70;99.90;;;;;;5093955;28;20027;-63
2022/04/02 11:27:49;;;;;;;17.85;7.07;;;3.80;99.90;;;;;;5092661;28;20024;-63
2022/04/02 11:30:16;;;;;;;9.60;7.00;;;3.90;99.90;;;;;;5094128;28;20025;-63
2022/04/02 11:32:45;;;;;;;12.00;6.95;;;4.00;99.90;;;;;;5093956;28;20027;-63
2022/04/02 11:35:24;;;;;;;17.42;7.50;;;4.00;99.90;;;;;;5093596;28;20020;-63
2022/04/02 11:38:14;;;;;;;16.97;7.57;;;3.90;99.90;;;;;;5093887;28;20388;-63
2022/04/02 11:43:45;;;;;;;16.38;7.30;;;3.80;99.90;;;;;;5093647;28;20131;-63
2022/04/02 11:46:16;;;;;;;16.90;6.57;;;3.70;99.90;;;;;;5092186;28;20064;-63
2022/04/02 11:48:56;;;;;;;12.75;7.20;;;3.60;99.90;;;;;;5093586;28;20032;-63
2022/04/02 11:51:29;;;;;;;13.05;7.15;;;3.70;99.90;;;;;;5093739;28;20537;-63
2022/04/02 11:54:04;;;;;;;12.55;7.05;;;3.70;99.90;;;;;;5093816;28;20035;-63
2022/04/02 11:56:34;;;;;;;15.77;7.75;;;3.80;99.90;;;;;;5092327;28;20112;-63
2022/04/02 11:59:04;;;;;;;16.25;8.70;;;3.80;99.90;;;;;;5092072;28;20028;-63
2022/04/02 12:01:41;;;;;;;12.50;7.15;;;3.80;99.90;;;;;;5093314;28;20024;-62
2022/04/02 12:04:13;;;;;;;15.68;8.30;;;3.80;99.90;;;;;;5092279;28;20031;-62
2022/04/02 12:06:43;;;;;;;15.98;7.72;;;3.80;99.90;;;;;;5092432;28;20031;-63
2022/04/02 12:09:21;;;;;;;13.80;7.90;;;3.60;99.90;;;;;;5093595;28;20050;-62
2022/04/02 12:11:55;;;;;;;13.82;7.80;;;3.60;99.90;;;;;;5092451;28;20115;-62
2022/04/02 12:14:35;;;;;;;13.10;7.80;;;3.60;99.90;;;;;;5091961;28;20024;-62
2022/04/02 12:17:02;;;;;;;16.55;8.85;;;3.60;99.90;;;;;;5093244;28;20036;-63
2022/04/02 12:19:43;;;;;;;12.77;8.00;;;3.70;99.90;;;;;;5093129;28;20460;-63
2022/04/02 12:22:31;;;;;;;14.20;7.68;;;3.70;99.90;;;;;;5093393;28;20485;-62
2022/04/02 12:25:02;;;;;;;19.25;7.40;;;3.70;99.90;;;;;;5093215;28;20384;-62
2022/04/02 12:27:30;;;;;;;14.55;7.80;;;3.80;99.90;;;;;;5093950;28;20119;-63
2022/04/02 12:29:58;;;;;;;12.88;7.60;;;3.80;99.90;;;;;;5097156;28;20483;-63
2022/04/02 12:32:35;;;;;;;15.68;8.40;;;3.90;99.90;;;;;;5097105;28;20036;-63
2022/04/02 12:35:02;;;;;;;14.80;8.18;;;4.00;99.90;;;;;;5096857;28;20020;-63
2022/04/02 12:37:40;;;;;;;15.82;8.60;;;4.00;99.90;;;;;;5097129;28;20024;-63
2022/04/02 12:40:26;;;;;;;18.38;8.80;;;4.00;99.90;;;;;;5095592;28;20028;-63
2022/04/02 12:43:11;;;;;;;14.70;8.73;;;3.90;99.90;;;;;;5096913;28;20024;-63
2022/04/02 12:45:38;;;;;;;17.15;9.07;;;3.70;99.90;;;;;;5096916;28;20024;-63
2022/04/02 12:48:17;;;;;;;13.95;9.38;;;3.50;99.90;;;;;;5097106;28;20034;-63
2022/04/02 12:50:50;;;;;;;16.10;9.63;;;3.40;99.90;;;;;;5095178;28;20077;-63
2022/04/02 12:53:28;;;;;;;16.50;10.43;;;3.10;99.90;;;;;;5096692;28;20107;-63
2022/04/02 12:55:54;;;;;;;15.63;10.35;;;3.10;99.90;;;;;;5096609;28;20081;-63
2022/04/02 12:58:34;;;;;;;17.20;10.35;;;3.00;99.90;;;;;;5096654;28;20024;-63
2022/04/02 13:01:13;;;;;;;17.85;10.52;;;2.80;99.90;;;;;;5096812;28;20032;-63
2022/04/02 13:03:59;;;;;;;;;;;2.80;99.90;;;;;;5096964;28;20031;-63
2022/04/02 13:06:27;;;;;;;18.55;10.70;;;2.70;99.90;;;;;;5096750;28;19985;-63
2022/04/02 13:09:01;;;;;;;25.73;11.98;;;2.70;99.90;;;;;;5096684;28;20028;-63
2022/04/02 13:11:54;;;;;;;17.75;11.25;;;2.60;99.90;;;;;;5095568;28;20063;-63
2022/04/02 13:14:24;;;;;;;16.80;11.30;;;2.50;99.90;;;;;;5095433;28;20096;-63